createdAt,value
2019-03-31T00:00:50.809Z,101011.95
2019-03-31T00:01:59.848Z,101012.38
2019-03-31T00:03:07.338Z,101011.97
2019-03-31T00:04:13.293Z,101011.97
2019-03-31T00:05:17.760Z,101011.97
2019-03-31T00:06:22.242Z,101013.27
2019-03-31T00:07:26.692Z,101011.97
2019-03-31T00:08:31.464Z,101011.09
2019-03-31T00:09:35.945Z,101011.95
2019-03-31T00:10:40.415Z,101007.59
2019-03-31T00:11:44.875Z,101002.80
2019-03-31T00:12:49.340Z,101004.98
2019-03-31T00:13:54.139Z,101004.97
2019-03-31T00:14:58.960Z,101004.54
2019-03-31T00:16:03.417Z,101003.23
2019-03-31T00:17:07.954Z,101000.19
2019-03-31T00:18:12.420Z,100998.02
2019-03-31T00:19:16.907Z,100994.52
2019-03-31T00:20:21.724Z,101005.45
2019-03-31T00:21:26.194Z,101005.45
2019-03-31T00:22:30.940Z,101000.61
2019-03-31T00:23:35.425Z,101001.51
2019-03-31T00:24:40.060Z,101001.08
2019-03-31T00:25:46.164Z,101001.08
2019-03-31T00:26:50.630Z,101000.61
2019-03-31T00:27:55.102Z,101000.20
2019-03-31T00:28:59.563Z,101003.67
2019-03-31T00:30:05.372Z,100998.02
2019-03-31T00:31:21.479Z,101006.29
2019-03-31T00:32:15.998Z,101012.84
2019-03-31T00:33:21.427Z,101007.63
2019-03-31T00:34:25.890Z,101012.42
2019-03-31T00:35:30.844Z,101007.60
2019-03-31T00:36:35.306Z,101008.93
2019-03-31T00:37:39.839Z,101004.99
2019-03-31T00:38:44.319Z,101010.67
2019-03-31T00:39:48.803Z,101006.75
2019-03-31T00:40:53.263Z,101008.04
2019-03-31T00:41:57.730Z,101004.55
2019-03-31T00:43:02.521Z,101004.56
2019-03-31T00:44:06.992Z,101004.13
2019-03-31T00:45:11.546Z,101005.86
2019-03-31T00:46:16.011Z,101006.75
2019-03-31T00:47:21.831Z,101014.16
2019-03-31T00:48:26.297Z,101015.89
2019-03-31T00:49:30.858Z,101019.39
2019-03-31T00:50:35.331Z,101017.63
2019-03-31T00:51:39.786Z,101016.77
2019-03-31T00:52:44.251Z,101016.77
2019-03-31T00:53:49.000Z,101019.80
2019-03-31T00:54:53.799Z,101012.39
2019-03-31T00:55:58.295Z,101018.94
2019-03-31T00:57:02.745Z,101018.48
2019-03-31T00:58:07.207Z,101018.05
2019-03-31T00:59:11.676Z,101014.56
2019-03-31T01:00:19.332Z,101019.77
2019-03-31T01:01:36.393Z,101015.41
2019-03-31T01:02:37.270Z,101012.78
2019-03-31T01:03:41.804Z,101012.33
2019-03-31T01:04:46.470Z,101018.88
2019-03-31T01:05:51.100Z,101013.22
2019-03-31T01:06:55.871Z,101020.63
2019-03-31T01:08:00.710Z,101021.47
2019-03-31T01:09:09.864Z,101021.88
2019-03-31T01:10:16.448Z,101018.41
2019-03-31T01:11:22.618Z,101021.86
2019-03-31T01:12:28.566Z,101017.50
2019-03-31T01:13:33.452Z,101017.92
2019-03-31T01:14:37.990Z,101020.55
2019-03-31T01:15:42.641Z,101023.16
2019-03-31T01:16:47.403Z,101029.66
2019-03-31T01:17:51.877Z,101033.59
2019-03-31T01:18:56.731Z,101033.59
2019-03-31T01:20:02.266Z,101035.33
2019-03-31T01:21:07.926Z,101033.16
2019-03-31T01:22:12.455Z,101031.84
2019-03-31T01:23:16.929Z,101035.33
2019-03-31T01:24:21.396Z,101033.57
2019-03-31T01:25:26.105Z,101034.85
2019-03-31T01:26:30.751Z,101031.36
2019-03-31T01:27:35.210Z,101040.51
2019-03-31T01:28:39.678Z,101043.13
2019-03-31T01:29:44.149Z,101043.98
2019-03-31T01:30:48.868Z,101047.88
2019-03-31T01:31:56.100Z,101044.00
2019-03-31T01:33:00.929Z,101045.78
2019-03-31T01:34:05.736Z,101047.55
2019-03-31T01:35:11.017Z,101050.19
2019-03-31T01:36:15.583Z,101050.16
2019-03-31T01:37:21.124Z,101049.28
2019-03-31T01:38:25.599Z,101046.72
2019-03-31T01:39:30.732Z,101050.19
2019-03-31T01:40:35.338Z,101046.72
2019-03-31T01:41:39.828Z,101048.97
2019-03-31T01:42:44.297Z,101051.57
2019-03-31T01:43:48.837Z,101051.19
2019-03-31T01:44:53.304Z,101045.48
2019-03-31T01:45:58.160Z,101048.52
2019-03-31T01:47:03.492Z,101050.73
2019-03-31T01:48:07.957Z,101052.89
2019-03-31T01:49:12.416Z,101052.47
2019-03-31T01:50:16.949Z,101051.56
2019-03-31T01:51:21.842Z,101048.06
2019-03-31T01:52:26.318Z,101049.84
2019-03-31T01:53:31.169Z,101046.78
2019-03-31T01:54:35.634Z,101046.76
2019-03-31T01:55:40.098Z,101045.03
2019-03-31T01:56:45.036Z,101043.70
2019-03-31T01:57:49.933Z,101049.80
2019-03-31T01:58:54.749Z,101045.86
2019-03-31T01:59:59.213Z,101055.44
2019-03-31T02:01:06.034Z,101048.46
2019-03-31T02:02:12.133Z,101050.16
2019-03-31T02:03:16.667Z,101047.98
2019-03-31T02:04:21.132Z,101044.48
2019-03-31T02:05:25.653Z,101042.31
2019-03-31T02:06:30.436Z,101047.56
2019-03-31T02:07:35.234Z,101051.97
2019-03-31T02:08:39.702Z,101047.14
2019-03-31T02:09:44.167Z,101046.24
2019-03-31T02:10:48.944Z,101050.71
2019-03-31T02:11:53.435Z,101049.39
2019-03-31T02:12:57.892Z,101049.42
2019-03-31T02:14:02.367Z,101045.03
2019-03-31T02:15:08.244Z,101048.60
2019-03-31T02:16:12.992Z,101049.91
2019-03-31T02:17:17.947Z,101049.47
2019-03-31T02:18:22.844Z,101044.21
2019-03-31T02:19:27.385Z,101051.20
2019-03-31T02:20:31.852Z,101049.45
2019-03-31T02:21:36.337Z,101059.45
2019-03-31T02:22:41.191Z,101049.85
2019-03-31T02:23:45.652Z,101046.38
2019-03-31T02:24:50.426Z,101043.37
2019-03-31T02:25:55.249Z,101048.63
2019-03-31T02:27:00.676Z,101036.42
2019-03-31T02:28:05.496Z,101044.26
2019-03-31T02:29:09.954Z,101040.31
2019-03-31T02:30:15.632Z,101045.55
2019-03-31T02:31:20.102Z,101038.14
2019-03-31T02:32:25.027Z,101040.34
2019-03-31T02:33:29.721Z,101041.64
2019-03-31T02:34:34.200Z,101044.28
2019-03-31T02:35:38.744Z,101046.44
2019-03-31T02:36:43.226Z,101037.28
2019-03-31T02:37:47.690Z,101039.89
2019-03-31T02:38:52.465Z,101039.03
2019-03-31T02:39:56.925Z,101042.52
2019-03-31T02:41:01.448Z,101044.72
2019-03-31T02:42:05.947Z,101052.55
2019-03-31T02:43:10.410Z,101052.12
2019-03-31T02:44:14.883Z,101046.87
2019-03-31T02:45:19.759Z,101046.00
2019-03-31T02:46:24.207Z,101049.48
2019-03-31T02:47:29.762Z,101053.37
2019-03-31T02:48:34.224Z,101053.34
2019-03-31T02:49:38.698Z,101056.38
2019-03-31T02:50:51.136Z,101058.16
2019-03-31T02:51:55.617Z,101053.36
2019-03-31T02:53:00.335Z,101051.16
2019-03-31T02:54:04.937Z,101050.73
2019-03-31T02:55:09.472Z,101053.33
2019-03-31T02:56:16.343Z,101054.61
2019-03-31T02:57:22.362Z,101056.33
2019-03-31T02:58:28.067Z,101058.05
2019-03-31T02:59:33.178Z,101055.00
2019-03-31T03:00:38.276Z,101062.83
2019-03-31T03:01:43.305Z,101064.97
2019-03-31T03:02:48.349Z,101055.80
2019-03-31T03:03:53.235Z,101060.16
2019-03-31T03:05:16.975Z,101064.06
2019-03-31T03:06:06.729Z,101060.54
2019-03-31T03:07:12.964Z,101061.79
2019-03-31T03:08:18.866Z,101056.57
2019-03-31T03:09:26.258Z,101060.00
2019-03-31T03:10:33.553Z,101067.39
2019-03-31T03:11:38.967Z,101064.72
2019-03-31T03:12:45.290Z,101070.39
2019-03-31T03:13:50.503Z,101075.16
2019-03-31T03:14:57.524Z,101077.28
2019-03-31T03:16:13.516Z,101072.03
2019-03-31T03:17:18.046Z,101075.06
2019-03-31T03:18:22.525Z,101076.80
2019-03-31T03:19:26.990Z,101077.64
2019-03-31T03:20:31.453Z,101077.61
2019-03-31T03:21:35.912Z,101085.86
2019-03-31T03:22:40.402Z,101082.30
2019-03-31T03:23:45.199Z,101082.29
2019-03-31T03:24:49.665Z,101093.15
2019-03-31T03:25:56.445Z,101088.35
2019-03-31T03:27:00.314Z,101090.50
2019-03-31T03:28:04.790Z,101093.08
2019-03-31T03:29:09.275Z,101090.03
2019-03-31T03:30:13.916Z,101093.03
2019-03-31T03:31:18.658Z,101097.83
2019-03-31T03:32:23.462Z,101096.06
2019-03-31T03:33:27.979Z,101102.08
2019-03-31T03:34:32.498Z,101095.56
2019-03-31T03:35:36.975Z,101099.01
2019-03-31T03:36:45.246Z,101103.34
2019-03-31T03:37:49.735Z,101096.36
2019-03-31T03:38:54.275Z,101099.38
2019-03-31T03:39:58.745Z,101101.48
2019-03-31T03:41:03.201Z,101095.80
2019-03-31T03:42:08.736Z,101097.55
2019-03-31T03:43:13.590Z,101094.86
2019-03-31T03:44:18.055Z,101098.77
2019-03-31T03:45:22.922Z,101101.37
2019-03-31T03:46:27.385Z,101103.52
2019-03-31T03:47:31.846Z,101106.12
2019-03-31T03:48:36.662Z,101106.95
2019-03-31T03:49:41.483Z,101107.38
2019-03-31T03:50:45.947Z,101110.77
2019-03-31T03:51:50.421Z,101111.66
2019-03-31T03:52:55.231Z,101109.52
2019-03-31T03:54:00.044Z,101113.42
2019-03-31T03:55:04.901Z,101110.34
2019-03-31T03:56:09.683Z,101113.36
2019-03-31T03:57:14.149Z,101113.31
2019-03-31T03:58:18.920Z,101117.63
2019-03-31T03:59:23.389Z,101117.58
2019-03-31T04:00:27.861Z,101117.53
2019-03-31T04:01:32.996Z,101116.64
2019-03-31T04:02:37.450Z,101114.45
2019-03-31T04:03:41.934Z,101119.23
2019-03-31T04:04:47.375Z,101119.66
2019-03-31T04:05:51.837Z,101116.98
2019-03-31T04:06:56.304Z,101122.69
2019-03-31T04:08:00.782Z,101127.91
2019-03-31T04:09:06.754Z,101131.86
2019-03-31T04:10:30.782Z,101131.40
2019-03-31T04:11:36.219Z,101123.15
2019-03-31T04:12:40.684Z,101124.80
2019-03-31T04:13:45.651Z,101124.34
2019-03-31T04:14:50.454Z,101125.17
2019-03-31T04:15:54.915Z,101126.47
2019-03-31T04:16:59.390Z,101123.39
2019-03-31T04:18:03.849Z,101128.13
2019-03-31T04:19:08.664Z,101132.86
2019-03-31T04:20:13.128Z,101140.62
2019-03-31T04:21:17.687Z,101138.02
2019-03-31T04:22:22.126Z,101137.12
2019-03-31T04:23:26.608Z,101137.64
2019-03-31T04:24:32.721Z,101139.78
2019-03-31T04:25:37.179Z,101139.73
2019-03-31T04:26:41.650Z,101145.34
2019-03-31T04:27:46.117Z,101147.06
2019-03-31T04:28:50.596Z,101151.02
2019-03-31T04:29:56.181Z,101148.42
2019-03-31T04:31:00.658Z,101152.74
2019-03-31T04:32:05.122Z,101147.48
2019-03-31T04:33:09.590Z,101149.27
2019-03-31T04:34:14.083Z,101148.42
2019-03-31T04:35:18.872Z,101154.47
2019-03-31T04:36:23.784Z,101155.34
2019-03-31T04:37:28.248Z,101153.17
2019-03-31T04:38:32.731Z,101155.83
2019-03-31T04:39:37.191Z,101151.05
2019-03-31T04:40:41.660Z,101153.70
2019-03-31T04:41:46.130Z,101152.40
2019-03-31T04:42:50.957Z,101154.53
2019-03-31T04:43:55.772Z,101156.67
2019-03-31T04:45:00.433Z,101157.08
2019-03-31T04:46:04.964Z,101155.78
2019-03-31T04:47:09.831Z,101158.84
2019-03-31T04:48:14.295Z,101164.42
2019-03-31T04:49:18.785Z,101162.68
2019-03-31T04:50:23.247Z,101162.22
2019-03-31T04:51:27.714Z,101168.73
2019-03-31T04:52:32.497Z,101164.83
2019-03-31T04:53:36.963Z,101171.39
2019-03-31T04:54:41.449Z,101169.22
2019-03-31T04:55:45.917Z,101171.45
2019-03-31T04:56:50.375Z,101168.86
2019-03-31T04:57:54.836Z,101171.47
2019-03-31T04:58:59.335Z,101174.98
2019-03-31T05:00:04.564Z,101174.56
2019-03-31T05:01:10.436Z,101180.19
2019-03-31T05:02:14.903Z,101182.37
2019-03-31T05:03:19.370Z,101185.87
2019-03-31T05:04:24.217Z,101186.83
2019-03-31T05:05:28.686Z,101186.90
2019-03-31T05:06:33.164Z,101194.48
2019-03-31T05:07:37.911Z,101197.23
2019-03-31T05:08:42.387Z,101197.41
2019-03-31T05:09:46.878Z,101200.48
2019-03-31T05:10:51.772Z,101201.86
2019-03-31T05:11:56.242Z,101205.82
2019-03-31T05:13:00.711Z,101212.77
2019-03-31T05:14:05.189Z,101210.27
2019-03-31T05:15:10.032Z,101220.01
2019-03-31T05:16:14.962Z,101219.65
2019-03-31T05:17:19.756Z,101223.58
2019-03-31T05:18:24.578Z,101228.94
2019-03-31T05:19:29.074Z,101228.94
2019-03-31T05:20:33.541Z,101235.09
2019-03-31T05:21:38.013Z,101232.16
2019-03-31T05:22:43.251Z,101236.08
2019-03-31T05:23:48.070Z,101241.86
2019-03-31T05:24:52.556Z,101238.45
2019-03-31T05:25:57.038Z,101240.27
2019-03-31T05:27:01.502Z,101244.69
2019-03-31T05:28:06.952Z,101246.04
2019-03-31T05:29:11.419Z,101246.08
2019-03-31T05:30:15.910Z,101248.27
2019-03-31T05:31:20.675Z,101252.23
2019-03-31T05:32:25.435Z,101250.08
2019-03-31T05:33:30.210Z,101258.38
2019-03-31T05:34:34.681Z,101261.45
2019-03-31T05:35:39.172Z,101261.45
2019-03-31T05:36:43.630Z,101262.77
2019-03-31T05:37:51.275Z,101267.10
2019-03-31T05:38:55.230Z,101261.41
2019-03-31T05:40:00.058Z,101267.53
2019-03-31T05:41:04.590Z,101267.10
2019-03-31T05:42:09.056Z,101271.52
2019-03-31T05:43:13.519Z,101272.38
2019-03-31T05:44:17.988Z,101264.06
2019-03-31T05:45:22.819Z,101270.60
2019-03-31T05:46:27.630Z,101271.45
2019-03-31T05:47:32.104Z,101276.72
2019-03-31T05:48:36.870Z,101283.25
2019-03-31T05:49:41.503Z,101267.95
2019-03-31T05:50:46.284Z,101279.28
2019-03-31T05:51:51.120Z,101280.13
2019-03-31T05:52:55.660Z,101287.94
2019-03-31T05:54:00.128Z,101282.71
2019-03-31T05:55:06.029Z,101282.71
2019-03-31T05:56:10.513Z,101284.91
2019-03-31T05:57:15.335Z,101283.97
2019-03-31T05:58:19.795Z,101296.23
2019-03-31T05:59:24.272Z,101295.31
2019-03-31T06:00:35.524Z,101298.39
2019-03-31T06:01:40.265Z,101292.74
2019-03-31T06:02:45.048Z,101299.73
2019-03-31T06:03:49.508Z,101299.70
2019-03-31T06:04:53.976Z,101294.93
2019-03-31T06:05:58.457Z,101286.29
2019-03-31T06:07:04.252Z,101284.55
2019-03-31T06:08:08.720Z,101286.75
2019-03-31T06:09:13.398Z,101295.09
2019-03-31T06:10:17.862Z,101292.94
2019-03-31T06:11:22.682Z,101295.98
2019-03-31T06:12:27.157Z,101297.28
2019-03-31T06:13:31.617Z,101293.82
2019-03-31T06:14:36.429Z,101294.70
2019-03-31T06:15:40.896Z,101293.00
2019-03-31T06:16:45.381Z,101287.35
2019-03-31T06:17:49.852Z,101293.01
2019-03-31T06:18:54.800Z,101295.20
2019-03-31T06:19:59.549Z,101287.84
2019-03-31T06:21:04.395Z,101302.33
2019-03-31T06:22:09.141Z,101295.81
2019-03-31T06:23:13.968Z,101293.63
2019-03-31T06:24:19.074Z,101295.39
2019-03-31T06:25:24.322Z,101301.50
2019-03-31T06:26:29.489Z,101303.75
2019-03-31T06:27:34.061Z,101303.77
2019-03-31T06:28:38.892Z,101305.08
2019-03-31T06:29:43.399Z,101308.16
2019-03-31T06:30:49.024Z,101311.22
2019-03-31T06:31:53.566Z,101312.50
2019-03-31T06:32:58.023Z,101312.11
2019-03-31T06:34:02.895Z,101311.67
2019-03-31T06:35:08.093Z,101320.03
2019-03-31T06:36:13.544Z,101320.91
2019-03-31T06:37:19.348Z,101323.94
2019-03-31T06:38:23.823Z,101322.65
2019-03-31T06:39:28.297Z,101324.00
2019-03-31T06:40:32.885Z,101321.45
2019-03-31T06:41:37.667Z,101330.16
2019-03-31T06:42:42.994Z,101338.42
2019-03-31T06:43:47.583Z,101336.28
2019-03-31T06:44:52.267Z,101331.48
2019-03-31T06:45:57.092Z,101336.75
2019-03-31T06:47:01.690Z,101335.52
2019-03-31T06:48:06.171Z,101340.70
2019-03-31T06:49:11.607Z,101343.40
2019-03-31T06:50:17.062Z,101343.83
2019-03-31T06:51:21.978Z,101343.42
2019-03-31T06:52:26.892Z,101345.61
2019-03-31T06:53:31.522Z,101347.39
2019-03-31T06:54:37.786Z,101350.43
2019-03-31T06:55:42.242Z,101347.81
2019-03-31T06:56:47.354Z,101354.34
2019-03-31T06:57:52.673Z,101352.17
2019-03-31T06:58:59.437Z,101354.83
2019-03-31T07:00:06.692Z,101357.00
2019-03-31T07:01:11.851Z,101361.36
2019-03-31T07:02:17.645Z,101358.32
2019-03-31T07:03:22.896Z,101365.31
2019-03-31T07:04:29.645Z,101363.16
2019-03-31T07:05:34.819Z,101368.82
2019-03-31T07:06:39.928Z,101365.77
2019-03-31T07:07:44.875Z,101364.89
2019-03-31T07:08:49.854Z,101361.81
2019-03-31T07:09:54.909Z,101364.42
2019-03-31T07:11:00.461Z,101368.84
2019-03-31T07:12:06.115Z,101358.80
2019-03-31T07:13:11.325Z,101360.97
2019-03-31T07:14:16.447Z,101370.17
2019-03-31T07:15:21.539Z,101355.73
2019-03-31T07:16:26.689Z,101365.37
2019-03-31T07:17:33.122Z,101361.40
2019-03-31T07:18:38.721Z,101364.45
2019-03-31T07:19:44.033Z,101367.51
2019-03-31T07:20:52.064Z,101371.89
2019-03-31T07:21:57.038Z,101369.66
2019-03-31T07:23:02.113Z,101375.36
2019-03-31T07:24:06.694Z,101378.45
2019-03-31T07:25:13.538Z,101380.23
2019-03-31T07:26:18.489Z,101377.13
2019-03-31T07:27:23.687Z,101375.39
2019-03-31T07:28:29.069Z,101379.34
2019-03-31T07:29:34.284Z,101381.06
2019-03-31T07:30:39.285Z,101386.80
2019-03-31T07:31:44.366Z,101387.67
2019-03-31T07:32:49.543Z,101394.67
2019-03-31T07:33:54.640Z,101394.22
2019-03-31T07:35:00.020Z,101396.41
2019-03-31T07:36:05.646Z,101396.84
2019-03-31T07:37:11.029Z,101392.47
2019-03-31T07:38:15.942Z,101398.17
2019-03-31T07:39:21.190Z,101395.52
2019-03-31T07:40:26.710Z,101399.84
2019-03-31T07:41:32.032Z,101402.02
2019-03-31T07:42:36.630Z,101406.41
2019-03-31T07:43:42.187Z,101400.28
2019-03-31T07:44:47.562Z,101403.82
2019-03-31T07:45:55.722Z,101404.22
2019-03-31T07:47:00.064Z,101406.87
2019-03-31T07:48:08.137Z,101406.42
2019-03-31T07:49:11.799Z,101412.56
2019-03-31T07:50:18.496Z,101415.19
2019-03-31T07:51:23.704Z,101406.45
2019-03-31T07:52:28.842Z,101416.48
2019-03-31T07:53:33.847Z,101410.36
2019-03-31T07:54:39.024Z,101415.63
2019-03-31T07:55:47.744Z,101409.48
2019-03-31T07:56:53.182Z,101416.91
2019-03-31T07:57:58.692Z,101413.44
2019-03-31T07:59:03.521Z,101410.79
2019-03-31T08:00:14.913Z,101421.70
2019-03-31T08:01:20.642Z,101424.38
2019-03-31T08:02:25.996Z,101427.02
2019-03-31T08:03:32.059Z,101424.38
2019-03-31T08:04:36.921Z,101425.72
2019-03-31T08:05:46.115Z,101427.47
2019-03-31T08:06:51.324Z,101420.05
2019-03-31T08:08:00.600Z,101427.47
2019-03-31T08:09:09.045Z,101429.66
2019-03-31T08:10:13.720Z,101425.72
2019-03-31T08:11:18.765Z,101430.95
2019-03-31T08:12:27.023Z,101430.55
2019-03-31T08:13:31.908Z,101435.77
2019-03-31T08:14:39.383Z,101431.85
2019-03-31T08:15:44.376Z,101432.72
2019-03-31T08:16:49.531Z,101440.60
2019-03-31T08:17:54.731Z,101434.02
2019-03-31T08:18:59.341Z,101439.73
2019-03-31T08:20:09.272Z,101438.44
2019-03-31T08:21:14.756Z,101443.68
2019-03-31T08:22:19.848Z,101440.17
2019-03-31T08:23:25.614Z,101437.53
2019-03-31T08:24:32.737Z,101436.65
2019-03-31T08:25:40.063Z,101444.98
2019-03-31T08:26:47.291Z,101444.98
2019-03-31T08:27:52.725Z,101443.64
2019-03-31T08:29:00.502Z,101448.47
2019-03-31T08:30:08.486Z,101441.47
2019-03-31T08:31:15.050Z,101444.97
2019-03-31T08:32:20.260Z,101443.64
2019-03-31T08:33:25.398Z,101446.30
2019-03-31T08:34:30.313Z,101444.95
2019-03-31T08:35:46.570Z,101451.99
2019-03-31T08:36:42.428Z,101448.91
2019-03-31T08:37:47.301Z,101455.03
2019-03-31T08:38:52.186Z,101451.99
2019-03-31T08:39:57.556Z,101454.60
2019-03-31T08:41:02.466Z,101457.23
2019-03-31T08:42:07.612Z,101452.87
2019-03-31T08:43:12.825Z,101465.55
2019-03-31T08:44:17.733Z,101456.78
2019-03-31T08:45:22.978Z,101445.42
2019-03-31T08:46:27.754Z,101451.98
2019-03-31T08:47:32.686Z,101457.23
2019-03-31T08:48:38.536Z,101452.84
2019-03-31T08:49:43.659Z,101451.07
2019-03-31T08:50:49.443Z,101454.16
2019-03-31T08:51:56.103Z,101460.30
2019-03-31T08:53:00.639Z,101460.28
2019-03-31T08:54:07.094Z,101455.89
2019-03-31T08:55:12.415Z,101460.29
2019-03-31T08:56:17.180Z,101464.25
2019-03-31T08:57:23.502Z,101466.84
2019-03-31T08:58:28.336Z,101468.61
2019-03-31T08:59:33.197Z,101466.84
2019-03-31T09:00:39.656Z,101474.28
2019-03-31T09:01:45.006Z,101472.09
2019-03-31T09:02:50.640Z,101473.38
2019-03-31T09:03:55.963Z,101480.38
2019-03-31T09:05:00.886Z,101481.28
2019-03-31T09:06:06.066Z,101482.14
2019-03-31T09:07:13.451Z,101483.00
2019-03-31T09:08:18.262Z,101484.31
2019-03-31T09:09:22.986Z,101489.12
2019-03-31T09:10:28.070Z,101485.61
2019-03-31T09:11:32.914Z,101491.73
2019-03-31T09:12:38.631Z,101488.70
2019-03-31T09:13:44.695Z,101490.45
2019-03-31T09:14:49.558Z,101487.40
2019-03-31T09:15:55.969Z,101498.79
2019-03-31T09:17:02.676Z,101494.84
2019-03-31T09:18:07.540Z,101490.89
2019-03-31T09:19:12.686Z,101496.12
2019-03-31T09:20:18.129Z,101487.81
2019-03-31T09:21:23.437Z,101494.36
2019-03-31T09:22:28.093Z,101498.30
2019-03-31T09:23:33.145Z,101496.58
2019-03-31T09:24:37.954Z,101500.95
2019-03-31T09:25:43.016Z,101498.75
2019-03-31T09:26:47.762Z,101495.73
2019-03-31T09:27:52.615Z,101504.03
2019-03-31T09:28:57.137Z,101496.58
2019-03-31T09:30:02.463Z,101496.58
2019-03-31T09:31:06.985Z,101503.58
2019-03-31T09:32:11.919Z,101497.44
2019-03-31T09:33:16.377Z,101505.25
2019-03-31T09:34:20.912Z,101504.84
2019-03-31T09:35:25.694Z,101505.67
2019-03-31T09:36:30.593Z,101503.08
2019-03-31T09:37:35.075Z,101510.08
2019-03-31T09:38:39.569Z,101504.84
2019-03-31T09:39:44.449Z,101513.61
2019-03-31T09:40:48.926Z,101507.95
2019-03-31T09:41:53.854Z,101500.07
2019-03-31T09:42:58.328Z,101509.62
2019-03-31T09:44:04.879Z,101509.69
2019-03-31T09:45:10.194Z,101511.89
2019-03-31T09:46:14.991Z,101516.73
2019-03-31T09:47:20.629Z,101515.84
2019-03-31T09:48:25.427Z,101516.71
2019-03-31T09:49:30.239Z,101514.10
2019-03-31T09:50:35.158Z,101519.38
2019-03-31T09:51:39.638Z,101511.50
2019-03-31T09:52:45.221Z,101518.08
2019-03-31T09:53:49.669Z,101516.33
2019-03-31T09:54:54.508Z,101517.62
2019-03-31T09:55:59.021Z,101524.20
2019-03-31T09:57:03.519Z,101518.08
2019-03-31T09:58:08.000Z,101518.95
2019-03-31T09:59:12.507Z,101513.23
2019-03-31T10:00:22.980Z,101515.44
2019-03-31T10:01:27.783Z,101513.67
2019-03-31T10:02:32.378Z,101513.69
2019-03-31T10:03:37.004Z,101506.52
2019-03-31T10:04:41.683Z,101502.56
2019-03-31T10:05:48.103Z,101503.41
2019-03-31T10:06:53.435Z,101504.74
2019-03-31T10:07:58.052Z,101502.16
2019-03-31T10:09:02.550Z,101508.84
2019-03-31T10:10:09.960Z,101508.84
2019-03-31T10:11:14.451Z,101496.18
2019-03-31T10:12:18.933Z,101496.43
2019-03-31T10:13:25.110Z,101490.15
2019-03-31T10:14:29.648Z,101465.19
2019-03-31T10:15:35.724Z,101465.19
2019-03-31T10:16:40.207Z,101486.70
2019-03-31T10:17:46.226Z,101490.24
2019-03-31T10:18:50.870Z,101494.62
2019-03-31T10:19:55.399Z,101493.47
2019-03-31T10:20:59.876Z,101486.76
2019-03-31T10:22:05.629Z,101485.53
2019-03-31T10:23:10.562Z,101495.17
2019-03-31T10:24:15.055Z,101495.52
2019-03-31T10:25:19.927Z,101494.65
2019-03-31T10:26:31.681Z,101491.27
2019-03-31T10:27:30.740Z,101497.55
2019-03-31T10:28:35.241Z,101496.75
2019-03-31T10:29:40.165Z,101501.09
2019-03-31T10:30:44.966Z,101491.74
2019-03-31T10:31:49.725Z,101489.22
2019-03-31T10:32:54.492Z,101492.55
2019-03-31T10:33:59.049Z,101489.58
2019-03-31T10:35:04.975Z,101489.58
2019-03-31T10:36:12.703Z,101498.34
2019-03-31T10:37:15.972Z,101494.53
2019-03-31T10:38:21.820Z,101494.41
2019-03-31T10:39:26.723Z,101492.42
2019-03-31T10:40:31.212Z,101493.06
2019-03-31T10:41:35.776Z,101486.83
2019-03-31T10:42:40.487Z,101496.59
2019-03-31T10:43:44.957Z,101492.23
2019-03-31T10:44:50.961Z,101493.56
2019-03-31T10:45:55.543Z,101496.98
2019-03-31T10:47:00.397Z,101488.17
2019-03-31T10:48:19.253Z,101496.06
2019-03-31T10:49:11.487Z,101501.47
2019-03-31T10:50:16.466Z,101494.57
2019-03-31T10:51:21.174Z,101504.75
2019-03-31T10:52:25.773Z,101500.72
2019-03-31T10:53:32.385Z,101500.89
2019-03-31T10:54:38.536Z,101503.04
2019-03-31T10:55:43.447Z,101501.55
2019-03-31T10:56:49.064Z,101506.66
2019-03-31T10:57:55.589Z,101501.41
2019-03-31T10:59:00.407Z,101490.91
2019-03-31T11:00:11.187Z,101485.00
2019-03-31T11:01:15.968Z,101485.00
2019-03-31T11:02:20.756Z,101506.95
2019-03-31T11:03:25.486Z,101500.17
2019-03-31T11:04:30.024Z,101516.31
2019-03-31T11:05:35.272Z,101518.08
2019-03-31T11:06:39.863Z,101497.09
2019-03-31T11:07:45.376Z,101516.76
2019-03-31T11:08:50.966Z,101511.57
2019-03-31T11:09:55.734Z,101508.43
2019-03-31T11:11:00.328Z,101515.30
2019-03-31T11:12:05.332Z,101519.98
2019-03-31T11:13:10.051Z,101515.88
2019-03-31T11:14:14.520Z,101515.02
2019-03-31T11:15:19.003Z,101511.17
2019-03-31T11:16:23.815Z,101508.70
2019-03-31T11:17:29.251Z,101510.03
2019-03-31T11:18:33.736Z,101507.44
2019-03-31T11:19:38.229Z,101512.36
2019-03-31T11:20:42.694Z,101507.77
2019-03-31T11:21:51.658Z,101511.64
2019-03-31T11:23:03.265Z,101510.31
2019-03-31T11:24:08.071Z,101512.33
2019-03-31T11:25:21.082Z,101522.37
2019-03-31T11:26:19.984Z,101515.82
2019-03-31T11:27:24.763Z,101505.81
2019-03-31T11:28:29.451Z,101515.39
2019-03-31T11:29:34.198Z,101507.19
2019-03-31T11:30:38.985Z,101511.87
2019-03-31T11:31:43.761Z,101510.30
2019-03-31T11:32:48.218Z,101506.38
2019-03-31T11:33:52.708Z,101504.28
2019-03-31T11:34:57.460Z,101499.91
2019-03-31T11:36:01.940Z,101504.68
2019-03-31T11:37:13.744Z,101504.28
2019-03-31T11:38:13.860Z,101501.28
2019-03-31T11:39:18.628Z,101498.16
2019-03-31T11:40:23.081Z,101495.11
2019-03-31T11:41:27.563Z,101496.45
2019-03-31T11:42:32.181Z,101503.41
2019-03-31T11:43:36.638Z,101504.72
2019-03-31T11:44:41.086Z,101498.80
2019-03-31T11:45:45.544Z,101504.19
2019-03-31T11:46:50.024Z,101503.88
2019-03-31T11:47:54.765Z,101506.48
2019-03-31T11:48:59.228Z,101503.11
2019-03-31T11:50:05.403Z,101510.52
2019-03-31T11:51:10.317Z,101508.03
2019-03-31T11:52:15.142Z,101514.25
2019-03-31T11:53:19.930Z,101515.91
2019-03-31T11:54:24.379Z,101523.03
2019-03-31T11:55:28.839Z,101523.70
2019-03-31T11:56:33.329Z,101522.16
2019-03-31T11:57:38.183Z,101523.05
2019-03-31T11:58:42.634Z,101526.45
2019-03-31T11:59:49.679Z,101515.45
2019-03-31T12:00:55.041Z,101516.94
2019-03-31T12:02:00.587Z,101516.52
2019-03-31T12:03:05.136Z,101521.02
2019-03-31T12:04:09.606Z,101519.27
2019-03-31T12:05:14.757Z,101514.53
2019-03-31T12:06:19.225Z,101519.52
2019-03-31T12:07:28.312Z,101518.91
2019-03-31T12:08:30.166Z,101515.48
2019-03-31T12:09:34.623Z,101510.52
2019-03-31T12:10:39.092Z,101517.12
2019-03-31T12:11:45.613Z,101511.14
2019-03-31T12:12:49.940Z,101515.52
2019-03-31T12:13:54.404Z,101517.71
2019-03-31T12:15:06.507Z,101519.84
2019-03-31T12:16:12.009Z,101521.14
2019-03-31T12:17:16.449Z,101522.27
2019-03-31T12:18:20.917Z,101524.83
2019-03-31T12:19:25.391Z,101515.69
2019-03-31T12:20:30.153Z,101518.16
2019-03-31T12:21:34.629Z,101525.23
2019-03-31T12:22:39.649Z,101520.17
2019-03-31T12:23:44.111Z,101519.27